createdAt,value
2023-03-11T00:00:33.764Z,82.34
2023-03-11T00:04:13.326Z,82.33
2023-03-11T00:07:56.281Z,82.05
2023-03-11T00:11:35.613Z,82.31
2023-03-11T00:14:44.755Z,82.11
2023-03-11T00:18:22.246Z,82.24
2023-03-11T00:21:42.870Z,81.82
2023-03-11T00:25:31.915Z,81.69
2023-03-11T00:29:20.686Z,81.57
2023-03-11T00:33:09.728Z,81.31
2023-03-11T00:36:50.579Z,81.74
2023-03-11T00:40:29.571Z,81.80
2023-03-11T00:44:09.929Z,81.86
2023-03-11T00:47:44.265Z,81.61
2023-03-11T00:51:34.321Z,81.54
2023-03-11T00:55:23.438Z,81.17
2023-03-11T00:59:05.594Z,81.08
2023-03-11T01:02:53.997Z,81.51
2023-03-11T01:06:45.659Z,82.63
2023-03-11T01:10:34.976Z,82.56
2023-03-11T01:14:05.059Z,82.81
2023-03-11T01:17:54.171Z,82.79
2023-03-11T01:21:25.879Z,82.76
2023-03-11T01:25:07.432Z,82.93
2023-03-11T01:28:06.647Z,82.72
2023-03-11T01:31:38.639Z,82.53
2023-03-11T01:35:00.222Z,82.87
2023-03-11T01:38:49.287Z,82.41
2023-03-11T01:42:38.302Z,82.53
2023-03-11T01:46:23.463Z,82.88
2023-03-11T01:49:52.291Z,82.71
2023-03-11T01:53:12.725Z,83.32
2023-03-11T01:57:01.784Z,83.44
2023-03-11T02:00:50.956Z,82.78
2023-03-11T02:04:10.160Z,83.00
2023-03-11T02:07:49.359Z,82.96
2023-03-11T02:11:38.369Z,82.73
2023-03-11T02:15:18.358Z,83.04
2023-03-11T02:18:58.891Z,82.96
2023-03-11T02:22:33.425Z,82.92
2023-03-11T02:26:17.952Z,82.26
2023-03-11T02:29:50.344Z,82.34
2023-03-11T02:33:38.958Z,81.78
2023-03-11T02:37:15.656Z,82.45
2023-03-11T02:40:37.468Z,82.52
2023-03-11T02:44:19.363Z,82.82
2023-03-11T02:47:58.276Z,82.62
2023-03-11T02:51:47.362Z,82.25
2023-03-11T02:55:21.477Z,82.52
2023-03-11T02:59:00.481Z,82.98
2023-03-11T03:02:32.505Z,82.70
2023-03-11T03:06:10.994Z,82.63
2023-03-11T03:09:42.054Z,83.10
2023-03-11T03:12:44.187Z,84.43
2023-03-11T03:16:33.354Z,84.30
2023-03-11T03:20:01.660Z,84.28
2023-03-11T03:23:31.348Z,84.05
2023-03-11T03:27:03.473Z,85.17
2023-03-11T03:30:35.563Z,86.22
2023-03-11T03:34:24.611Z,86.55
2023-03-11T03:37:58.970Z,86.82
2023-03-11T03:41:40.494Z,87.52
2023-03-11T03:45:04.616Z,87.29
2023-03-11T03:48:47.617Z,88.34
2023-03-11T03:52:36.725Z,88.34
2023-03-11T03:56:11.301Z,88.31
2023-03-11T03:59:06.035Z,87.56
2023-03-11T04:02:07.587Z,87.11
2023-03-11T04:05:13.357Z,86.56
2023-03-11T04:08:40.586Z,85.98
2023-03-11T04:12:20.771Z,85.88
2023-03-11T04:15:48.438Z,85.12
2023-03-11T04:19:13.620Z,84.86
2023-03-11T04:22:30.442Z,84.22
2023-03-11T04:25:52.952Z,84.28
2023-03-11T04:28:55.397Z,84.60
2023-03-11T04:32:23.069Z,84.44
2023-03-11T04:35:54.846Z,84.33
2023-03-11T04:39:26.899Z,84.44
2023-03-11T04:42:30.481Z,84.72
2023-03-11T04:45:39.364Z,84.57
2023-03-11T04:48:55.088Z,83.86
2023-03-11T04:52:29.159Z,83.27
2023-03-11T04:55:37.035Z,83.12
2023-03-11T04:58:46.055Z,83.20
2023-03-11T05:01:56.375Z,83.38
2023-03-11T05:05:18.891Z,83.59
2023-03-11T05:09:06.488Z,82.70
2023-03-11T05:12:40.651Z,83.02
2023-03-11T05:16:19.830Z,82.86
2023-03-11T05:19:35.204Z,83.12
2023-03-11T05:23:27.622Z,82.79
2023-03-11T05:26:52.328Z,82.60
2023-03-11T05:30:15.505Z,82.37
2023-03-11T05:34:04.581Z,82.63
2023-03-11T05:37:33.578Z,82.47
2023-03-11T05:40:57.803Z,82.90
2023-03-11T05:44:38.326Z,82.92
2023-03-11T05:47:59.426Z,83.49
2023-03-11T05:51:31.043Z,83.59
2023-03-11T05:54:45.842Z,84.52
2023-03-11T05:57:50.009Z,84.81
2023-03-11T06:01:13.945Z,84.52
2023-03-11T06:04:54.044Z,84.38
2023-03-11T06:08:12.503Z,83.67
2023-03-11T06:11:31.685Z,83.19
2023-03-11T06:14:51.721Z,82.87
2023-03-11T06:18:06.853Z,82.40
2023-03-11T06:21:42.816Z,82.41
2023-03-11T06:25:14.219Z,82.10
2023-03-11T06:28:27.294Z,81.63
2023-03-11T06:32:11.027Z,81.96
2023-03-11T06:35:51.439Z,81.98
2023-03-11T06:39:31.700Z,81.59
2023-03-11T06:42:54.583Z,81.01
2023-03-11T06:46:17.670Z,80.63
2023-03-11T06:49:34.988Z,79.90
2023-03-11T06:53:06.749Z,79.87
2023-03-11T06:56:51.672Z,80.69
2023-03-11T07:00:42.721Z,79.67
2023-03-11T07:03:56.843Z,78.83
2023-03-11T07:07:02.590Z,78.35
2023-03-11T07:09:58.077Z,77.73
2023-03-11T07:13:09.165Z,77.48
2023-03-11T07:16:02.763Z,76.94
2023-03-11T07:18:55.421Z,75.05
2023-03-11T07:21:54.456Z,72.61
2023-03-11T07:24:52.698Z,71.91
2023-03-11T07:27:57.031Z,69.39
2023-03-11T07:31:04.418Z,70.35
2023-03-11T07:34:14.219Z,70.12
2023-03-11T07:36:51.644Z,69.55
2023-03-11T07:39:30.892Z,66.94
2023-03-11T07:42:54.640Z,68.19
2023-03-11T07:45:50.438Z,65.86
2023-03-11T07:48:38.157Z,65.18
2023-03-11T07:51:46.140Z,64.22
2023-03-11T07:54:59.373Z,63.49
2023-03-11T07:57:49.624Z,63.00
2023-03-11T08:00:45.695Z,64.24
2023-03-11T08:03:40.907Z,64.52
2023-03-11T08:06:40.303Z,62.35
2023-03-11T08:10:10.289Z,61.71
2023-03-11T08:13:21.602Z,60.49
2023-03-11T08:16:12.573Z,59.43
2023-03-11T08:19:15.924Z,58.24
2023-03-11T08:22:55.644Z,56.31
2023-03-11T08:25:56.847Z,55.10
2023-03-11T08:29:35.460Z,56.02
2023-03-11T08:32:43.197Z,54.31
2023-03-11T08:36:30.891Z,53.95
2023-03-11T08:39:57.163Z,53.03
2023-03-11T08:43:18.984Z,52.59
2023-03-11T08:46:29.516Z,53.04
2023-03-11T08:49:54.171Z,51.49
2023-03-11T08:53:43.210Z,50.07
2023-03-11T08:56:48.053Z,50.84
2023-03-11T08:59:37.242Z,50.14
2023-03-11T09:02:54.107Z,50.28
2023-03-11T09:05:59.176Z,51.28
2023-03-11T09:09:37.101Z,51.12
2023-03-11T09:12:53.440Z,51.72
2023-03-11T09:16:12.176Z,52.41
2023-03-11T09:19:32.596Z,53.02
2023-03-11T09:23:01.727Z,51.31
2023-03-11T09:26:30.739Z,51.90
2023-03-11T09:29:59.616Z,52.23
2023-03-11T09:33:32.842Z,52.96
2023-03-11T09:36:51.121Z,52.02
2023-03-11T09:40:18.516Z,51.48
2023-03-11T09:43:42.853Z,51.69
2023-03-11T09:47:13.819Z,50.19
2023-03-11T09:51:17.857Z,50.58
2023-03-11T09:54:29.017Z,51.17
2023-03-11T09:57:38.801Z,52.23
2023-03-11T10:00:41.045Z,49.73
2023-03-11T10:03:58.146Z,50.41
2023-03-11T10:07:09.316Z,50.05
2023-03-11T10:10:23.315Z,49.08
2023-03-11T10:14:16.683Z,48.74
2023-03-11T10:29:08.851Z,49.40
2023-03-11T10:31:54.938Z,48.35
2023-03-11T10:34:55.034Z,48.50
2023-03-11T10:37:30.951Z,47.64
2023-03-11T10:40:23.762Z,49.01
2023-03-11T10:42:55.381Z,48.51
2023-03-11T10:45:24.272Z,49.22
2023-03-11T10:47:52.344Z,49.37
2023-03-11T10:50:20.849Z,50.27
2023-03-11T10:53:09.602Z,49.85
2023-03-11T10:55:50.250Z,50.63
2023-03-11T10:58:27.751Z,50.15
2023-03-11T11:01:17.226Z,51.20
2023-03-11T11:03:49.989Z,51.71
2023-03-11T11:06:25.646Z,50.82
2023-03-11T11:09:19.990Z,50.78
2023-03-11T11:12:14.487Z,48.61
2023-03-11T11:14:51.618Z,48.64
2023-03-11T11:17:40.481Z,47.78
2023-03-11T11:20:19.392Z,47.34
2023-03-11T11:22:51.180Z,47.49
2023-03-11T11:25:28.505Z,48.05
2023-03-11T11:28:00.206Z,48.11
2023-03-11T11:30:29.534Z,48.76
2023-03-11T11:33:23.214Z,50.61
2023-03-11T11:35:59.045Z,52.31
2023-03-11T11:38:29.517Z,52.62
2023-03-11T11:41:02.283Z,52.29
2023-03-11T11:43:46.411Z,51.85
2023-03-11T11:46:42.914Z,51.45
2023-03-11T11:49:23.141Z,51.91
2023-03-11T11:52:15.269Z,52.42
2023-03-11T11:54:46.757Z,52.49
2023-03-11T11:57:21.898Z,52.31
2023-03-11T11:59:50.478Z,51.74
2023-03-11T12:02:33.928Z,52.08
2023-03-11T12:05:08.348Z,53.73
2023-03-11T12:07:56.593Z,54.27
2023-03-11T12:10:53.252Z,54.43
2023-03-11T12:13:21.381Z,55.34
2023-03-11T12:15:58.705Z,55.62
2023-03-11T12:18:35.552Z,56.46
2023-03-11T12:21:29.416Z,57.20
2023-03-11T12:24:35.585Z,57.37
2023-03-11T12:27:19.548Z,58.32
2023-03-11T12:29:52.924Z,58.49
2023-03-11T12:32:30.968Z,59.68
2023-03-11T12:35:30.495Z,60.03
2023-03-11T12:38:01.788Z,59.06
2023-03-11T12:40:47.591Z,57.90
2023-03-11T12:43:33.610Z,58.09
2023-03-11T12:46:09.935Z,59.05
2023-03-11T12:48:47.532Z,57.54
2023-03-11T12:51:28.016Z,58.27
2023-03-11T12:53:57.091Z,57.42
2023-03-11T12:56:50.750Z,56.57
2023-03-11T12:59:38.528Z,54.80
2023-03-11T13:02:37.830Z,54.28
2023-03-11T13:05:23.070Z,51.18
2023-03-11T13:08:14.588Z,52.23
2023-03-11T13:10:46.753Z,52.29
2023-03-11T13:13:31.211Z,52.82
2023-03-11T13:16:19.776Z,52.85
2023-03-11T13:18:49.996Z,52.27
2023-03-11T13:21:27.633Z,52.97
2023-03-11T13:24:26.077Z,52.62
2023-03-11T13:27:01.364Z,53.15
2023-03-11T13:29:36.847Z,52.59
2023-03-11T13:32:32.340Z,53.07
2023-03-11T13:35:22.303Z,53.42
2023-03-11T13:38:11.927Z,52.90
2023-03-11T13:40:42.928Z,53.36
2023-03-11T13:43:20.251Z,53.99
2023-03-11T13:46:26.520Z,53.58
2023-03-11T13:49:03.410Z,54.26
2023-03-11T13:51:31.773Z,54.12
2023-03-11T13:54:27.035Z,54.37
2023-03-11T13:56:58.350Z,52.27
2023-03-11T13:59:29.851Z,50.56
2023-03-11T14:02:06.521Z,50.68
2023-03-11T14:04:37.695Z,51.40
2023-03-11T14:07:22.499Z,51.30
2023-03-11T14:09:50.837Z,51.68
2023-03-11T14:12:19.272Z,51.64
2023-03-11T14:15:02.695Z,51.88
2023-03-11T14:17:30.923Z,52.16
2023-03-11T14:20:19.392Z,52.57
2023-03-11T14:22:49.901Z,52.94
2023-03-11T14:25:36.903Z,53.49
2023-03-11T14:28:06.732Z,54.21
2023-03-11T14:30:35.096Z,54.39
2023-03-11T14:33:23.757Z,54.50
2023-03-11T14:35:57.854Z,55.17
2023-03-11T14:38:31.565Z,55.16
2023-03-11T14:41:05.878Z,55.65
2023-03-11T14:43:40.426Z,55.69
2023-03-11T14:46:12.814Z,56.41
2023-03-11T14:48:44.249Z,57.04
2023-03-11T14:51:24.605Z,57.16
2023-03-11T14:53:58.490Z,57.90
2023-03-11T14:56:28.095Z,58.53
2023-03-11T14:59:14.305Z,59.00
2023-03-11T15:01:46.664Z,59.31
2023-03-11T15:04:32.967Z,59.64
2023-03-11T15:07:04.647Z,59.73
2023-03-11T15:09:33.413Z,59.20
2023-03-11T15:12:05.881Z,59.20
2023-03-11T15:14:36.995Z,59.72
2023-03-11T15:17:42.814Z,59.78
2023-03-11T15:20:42.085Z,60.15
2023-03-11T15:23:22.864Z,60.68
2023-03-11T15:25:50.967Z,60.52
2023-03-11T15:28:24.353Z,60.80
2023-03-11T15:31:12.597Z,60.58
2023-03-11T15:33:41.448Z,60.26
2023-03-11T15:36:29.288Z,59.43
2023-03-11T15:39:27.073Z,60.18
2023-03-11T15:42:07.368Z,59.72
2023-03-11T15:45:13.405Z,60.30
2023-03-11T15:47:42.566Z,59.90
2023-03-11T15:50:43.276Z,59.29
2023-03-11T15:53:20.147Z,60.31
2023-03-11T15:55:48.565Z,60.52
2023-03-11T15:58:19.365Z,59.59
2023-03-11T16:00:56.696Z,59.59
2023-03-11T16:03:25.121Z,59.21
2023-03-11T16:05:53.289Z,57.79
2023-03-11T16:08:21.504Z,58.02
2023-03-11T16:10:49.688Z,58.31
2023-03-11T16:13:17.769Z,58.68
2023-03-11T16:15:47.278Z,58.68
2023-03-11T16:18:16.511Z,58.57
2023-03-11T16:20:48.216Z,59.02
2023-03-11T16:23:18.658Z,59.27
2023-03-11T16:25:47.940Z,58.49
2023-03-11T16:28:17.143Z,58.91
2023-03-11T16:30:45.556Z,59.34
2023-03-11T16:33:13.768Z,60.13
2023-03-11T16:35:41.898Z,60.70
2023-03-11T16:38:10.553Z,61.23
2023-03-11T16:40:39.348Z,60.98
2023-03-11T16:43:10.352Z,61.44
2023-03-11T16:45:38.676Z,62.23
2023-03-11T16:48:07.446Z,62.26
2023-03-11T16:50:37.399Z,62.56
2023-03-11T16:53:06.055Z,62.44
2023-03-11T16:55:34.428Z,62.89
2023-03-11T16:58:02.672Z,62.94
2023-03-11T17:00:30.931Z,62.99
2023-03-11T17:02:59.120Z,63.31
2023-03-11T17:05:27.148Z,63.21
2023-03-11T17:08:00.763Z,63.34
2023-03-11T17:10:29.309Z,63.43
2023-03-11T17:12:57.689Z,63.94
2023-03-11T17:15:28.818Z,64.08
2023-03-11T17:17:56.885Z,63.88
2023-03-11T17:20:25.479Z,63.93
2023-03-11T17:22:53.851Z,63.96
2023-03-11T17:25:22.432Z,64.17
2023-03-11T17:27:50.606Z,64.58
2023-03-11T17:30:35.583Z,64.85
2023-03-11T17:33:05.261Z,64.99
2023-03-11T17:35:33.715Z,65.02
2023-03-11T17:38:01.906Z,65.06
2023-03-11T17:40:31.891Z,65.02
2023-03-11T17:43:00.764Z,65.09
2023-03-11T17:45:28.929Z,65.24
2023-03-11T17:47:57.098Z,65.20
2023-03-11T17:50:26.474Z,64.91
2023-03-11T17:52:56.686Z,64.90
2023-03-11T17:55:25.096Z,64.96
2023-03-11T17:57:53.455Z,64.98
2023-03-11T18:00:22.363Z,64.98
2023-03-11T18:02:51.564Z,64.88
2023-03-11T18:05:21.269Z,65.26
2023-03-11T18:07:49.466Z,65.36
2023-03-11T18:10:17.620Z,65.35
2023-03-11T18:12:47.128Z,65.49
2023-03-11T18:15:19.475Z,65.65
2023-03-11T18:17:48.281Z,65.74
2023-03-11T18:20:17.778Z,65.83
2023-03-11T18:22:47.285Z,66.03
2023-03-11T18:25:15.772Z,66.45
2023-03-11T18:27:44.144Z,66.23
2023-03-11T18:30:13.293Z,65.99
2023-03-11T18:32:42.195Z,66.06
2023-03-11T18:35:11.666Z,66.23
2023-03-11T18:37:41.131Z,66.43
2023-03-11T18:40:10.463Z,66.40
2023-03-11T18:42:38.714Z,66.52
2023-03-11T18:45:07.603Z,66.20
2023-03-11T18:47:35.975Z,66.14
2023-03-11T18:50:05.293Z,66.01
2023-03-11T18:52:33.560Z,65.77
2023-03-11T18:55:01.737Z,65.93
2023-03-11T18:57:29.755Z,65.88
2023-03-11T18:59:57.987Z,65.79
2023-03-11T19:02:26.352Z,65.56
2023-03-11T19:04:54.603Z,65.49
2023-03-11T19:07:22.927Z,65.47
2023-03-11T19:09:51.132Z,65.79
2023-03-11T19:12:19.988Z,65.67
2023-03-11T19:14:48.266Z,65.82
2023-03-11T19:17:18.392Z,65.84
2023-03-11T19:19:46.701Z,65.87
2023-03-11T19:22:15.034Z,65.71
2023-03-11T19:24:43.300Z,65.77
2023-03-11T19:27:11.476Z,66.12
2023-03-11T19:29:39.848Z,66.42
2023-03-11T19:32:08.038Z,66.19
2023-03-11T19:34:36.194Z,66.99
2023-03-11T19:37:04.584Z,66.90
2023-03-11T19:39:32.983Z,67.82
2023-03-11T19:42:01.261Z,72.08
2023-03-11T19:44:29.379Z,76.22
2023-03-11T19:46:57.481Z,78.89
2023-03-11T19:49:25.671Z,79.88
2023-03-11T19:51:56.142Z,79.94
2023-03-11T19:54:24.376Z,80.93
2023-03-11T19:56:52.459Z,82.60
2023-03-11T19:59:20.475Z,82.64
2023-03-11T20:01:48.671Z,82.96
2023-03-11T20:04:16.934Z,82.63
2023-03-11T20:06:45.282Z,82.32
2023-03-11T20:09:16.857Z,83.18
2023-03-11T20:11:45.986Z,83.11
2023-03-11T20:14:14.781Z,82.50
2023-03-11T20:16:43.194Z,82.13
2023-03-11T20:19:12.038Z,81.21
2023-03-11T20:21:41.038Z,80.72
2023-03-11T20:24:10.571Z,80.40
2023-03-11T20:26:39.002Z,80.16
2023-03-11T20:29:07.452Z,79.92
2023-03-11T20:31:36.666Z,79.17
2023-03-11T20:34:05.384Z,78.75
2023-03-11T20:36:34.258Z,78.76
2023-03-11T20:39:04.158Z,78.59
2023-03-11T20:41:38.732Z,78.43
2023-03-11T20:44:09.522Z,78.33
2023-03-11T20:46:37.852Z,78.12
2023-03-11T20:49:07.082Z,77.78
2023-03-11T20:51:35.471Z,77.90
2023-03-11T20:54:03.952Z,77.98
2023-03-11T20:56:32.034Z,78.23
2023-03-11T20:59:01.110Z,78.64
2023-03-11T21:01:30.745Z,79.53
2023-03-11T21:04:02.277Z,79.21
2023-03-11T21:06:33.375Z,79.38
2023-03-11T21:09:06.015Z,79.29
2023-03-11T21:11:34.951Z,79.32
2023-03-11T21:14:03.427Z,79.21
2023-03-11T21:16:31.836Z,79.52
2023-03-11T21:19:01.636Z,79.13
2023-03-11T21:21:30.056Z,77.80
2023-03-11T21:23:58.302Z,75.36
2023-03-11T21:26:26.722Z,74.34
2023-03-11T21:28:55.490Z,72.30
2023-03-11T21:31:27.937Z,71.73
2023-03-11T21:33:59.131Z,70.40
2023-03-11T21:36:28.829Z,70.03
2023-03-11T21:38:57.014Z,69.43
2023-03-11T21:41:27.423Z,68.37
2023-03-11T21:43:57.164Z,67.84
2023-03-11T21:46:28.946Z,67.10
2023-03-11T21:48:58.139Z,67.34
2023-03-11T21:51:26.493Z,67.13
2023-03-11T21:53:55.082Z,66.49
2023-03-11T21:56:23.467Z,65.89
2023-03-11T21:58:53.855Z,66.31
2023-03-11T22:01:22.361Z,66.95
2023-03-11T22:03:50.973Z,66.45
2023-03-11T22:06:19.554Z,65.17
2023-03-11T22:08:48.277Z,64.71
2023-03-11T22:11:19.512Z,65.38
2023-03-11T22:13:51.426Z,65.52
2023-03-11T22:16:21.453Z,65.48
2023-03-11T22:18:51.769Z,65.41
2023-03-11T22:21:20.987Z,64.79
2023-03-11T22:23:49.684Z,64.94
2023-03-11T22:26:17.827Z,64.51
2023-03-11T22:28:46.118Z,65.27
2023-03-11T22:31:17.361Z,65.33
2023-03-11T22:33:46.503Z,65.37
2023-03-11T22:36:15.071Z,64.57
2023-03-11T22:38:45.118Z,64.20
2023-03-11T22:41:14.612Z,64.64
2023-03-11T22:43:42.809Z,64.48
2023-03-11T22:46:11.417Z,64.88
2023-03-11T22:48:39.581Z,64.68
2023-03-11T22:51:08.011Z,65.23
2023-03-11T22:53:36.404Z,65.13
2023-03-11T22:56:10.513Z,65.44
2023-03-11T22:58:39.604Z,65.24
2023-03-11T23:01:08.839Z,64.72
2023-03-11T23:03:38.089Z,65.45
2023-03-11T23:06:08.596Z,65.52
2023-03-11T23:08:37.377Z,65.74
2023-03-11T23:11:09.483Z,66.01
2023-03-11T23:13:39.030Z,66.06
2023-03-11T23:16:11.232Z,65.85
2023-03-11T23:18:39.569Z,66.06
2023-03-11T23:21:21.423Z,66.78
2023-03-11T23:23:49.811Z,66.50
2023-03-11T23:26:19.302Z,66.05
2023-03-11T23:28:50.771Z,66.75
2023-03-11T23:31:20.323Z,66.75
2023-03-11T23:33:48.948Z,66.81
2023-03-11T23:36:20.513Z,66.75
2023-03-11T23:38:50.868Z,66.38
2023-03-11T23:41:21.027Z,66.42
2023-03-11T23:43:49.467Z,67.29
2023-03-11T23:46:17.689Z,66.85
2023-03-11T23:48:46.190Z,67.28
2023-03-11T23:51:14.688Z,67.29
2023-03-11T23:53:42.940Z,67.41
2023-03-11T23:56:17.411Z,67.52
2023-03-11T23:58:46.589Z,67.64
